Time;durP1;ratioP1;P1;durP2;ratioP2;P2;SDS_P1;SDS_P2;PMS_P1;PMS_P2;Temp;Humidity;BMP_temperature;BMP_pressure;BME280_temperature;BME280_humidity;BME280_pressure;Samples;Min_cycle;Max_cycle;Signal;HPM_P1;HPM_P2
2020/12/28 00:00:17;;;;;;;9.450001;6.55;;;;;;;-0.94;72.16211;92188.53;;;;
2020/12/28 00:01:19;;;;;;;9.450001;6.55;;;;;;;-0.94;72.16211;92188.53;;;;
2020/12/28 00:02:20;;;;;;;9.450001;6.55;;;;;;;-0.94;72.16211;92188.53;;;;
2020/12/28 00:03:20;;;;;;;9.450001;6.55;;;;;;;-0.94;72.16211;92188.53;;;;
2020/12/28 00:04:20;;;;;;;9.450001;6.55;;;;;;;-0.94;72.16211;92188.53;;;;
2020/12/28 00:05:21;;;;;;;9.450001;6.55;;;;;;;-0.94;72.16211;92188.53;;;;
2020/12/28 00:06:22;;;;;;;9.450001;6.55;;;;;;;-0.94;72.16211;92188.53;;;;
2020/12/28 00:07:23;;;;;;;9.450001;6.55;;;;;;;-0.94;72.16211;92188.53;;;;
2020/12/28 00:08:23;;;;;;;9.450001;6.55;;;;;;;-0.94;72.16211;92188.53;;;;
2020/12/28 00:09:24;;;;;;;9.450001;6.55;;;;;;;-0.94;72.16211;92188.53;;;;
2020/12/28 00:10:24;;;;;;;9.1;5.949999;;;;;;;-0.93;72.25781;92194.5;;;;
2020/12/28 00:11:25;;;;;;;9.1;5.949999;;;;;;;-0.93;72.25781;92194.5;;;;
2020/12/28 00:12:26;;;;;;;9.1;5.949999;;;;;;;-0.93;72.25781;92194.5;;;;
2020/12/28 00:13:28;;;;;;;9.1;5.949999;;;;;;;-0.93;72.25781;92194.5;;;;
2020/12/28 00:14:28;;;;;;;9.1;5.949999;;;;;;;-0.93;72.25781;92194.5;;;;
2020/12/28 00:15:29;;;;;;;9.1;5.949999;;;;;;;-0.93;72.25781;92194.5;;;;
2020/12/28 00:16:30;;;;;;;9.1;5.949999;;;;;;;-0.93;72.25781;92194.5;;;;
2020/12/28 00:17:31;;;;;;;9.1;5.949999;;;;;;;-0.93;72.25781;92194.5;;;;
2020/12/28 00:18:31;;;;;;;9.1;5.949999;;;;;;;-0.93;72.25781;92194.5;;;;
2020/12/28 00:19:32;;;;;;;9.1;5.949999;;;;;;;-0.93;72.25781;92194.5;;;;
2020/12/28 00:20:32;;;;;;;9.1;5.949999;;;;;;;-0.93;72.25781;92194.5;;;;
2020/12/28 00:21:33;;;;;;;8.699999;5.85;;;;;;;-0.9;72.16992;92172.83;;;;
2020/12/28 00:22:34;;;;;;;8.699999;5.85;;;;;;;-0.9;72.16992;92172.83;;;;
2020/12/28 00:23:34;;;;;;;8.699999;5.85;;;;;;;-0.9;72.16992;92172.83;;;;
2020/12/28 00:24:35;;;;;;;8.699999;5.85;;;;;;;-0.9;72.16992;92172.83;;;;
2020/12/28 00:25:35;;;;;;;8.699999;5.85;;;;;;;-0.9;72.16992;92172.83;;;;
2020/12/28 00:26:36;;;;;;;8.699999;5.85;;;;;;;-0.9;72.16992;92172.83;;;;
2020/12/28 00:27:37;;;;;;;8.699999;5.85;;;;;;;-0.9;72.16992;92172.83;;;;
2020/12/28 00:28:38;;;;;;;8.699999;5.85;;;;;;;-0.9;72.16992;92172.83;;;;
2020/12/28 00:29:38;;;;;;;8.699999;5.85;;;;;;;-0.9;72.16992;92172.83;;;;
2020/12/28 00:30:39;;;;;;;8.699999;5.85;;;;;;;-0.9;72.16992;92172.83;;;;
2020/12/28 00:31:39;;;;;;;9.1;6.4;;;;;;;-0.89;72.16016;92153.38;;;;
2020/12/28 00:32:40;;;;;;;9.1;6.4;;;;;;;-0.89;72.16016;92153.38;;;;
2020/12/28 00:33:41;;;;;;;9.1;6.4;;;;;;;-0.89;72.16016;92153.38;;;;
2020/12/28 00:34:42;;;;;;;9.1;6.4;;;;;;;-0.89;72.16016;92153.38;;;;
2020/12/28 00:35:42;;;;;;;9.1;6.4;;;;;;;-0.89;72.16016;92153.38;;;;
2020/12/28 00:36:43;;;;;;;9.1;6.4;;;;;;;-0.89;72.16016;92153.38;;;;
2020/12/28 00:37:44;;;;;;;9.1;6.4;;;;;;;-0.89;72.16016;92153.38;;;;
2020/12/28 00:38:44;;;;;;;9.1;6.4;;;;;;;-0.89;72.16016;92153.38;;;;
2020/12/28 00:39:45;;;;;;;9.1;6.4;;;;;;;-0.89;72.16016;92153.38;;;;
2020/12/28 00:40:45;;;;;;;9.1;6.4;;;;;;;-0.89;72.16016;92153.38;;;;
2020/12/28 00:41:46;;;;;;;9.1;6.4;;;;;;;-0.89;72.16016;92153.38;;;;
2020/12/28 00:42:46;;;;;;;10.15;5.950001;;;;;;;-0.86;72.32227;92139.12;;;;
2020/12/28 00:43:47;;;;;;;10.15;5.950001;;;;;;;-0.86;72.32227;92139.12;;;;
2020/12/28 00:44:47;;;;;;;10.15;5.950001;;;;;;;-0.86;72.32227;92139.12;;;;
2020/12/28 00:45:48;;;;;;;10.15;5.950001;;;;;;;-0.86;72.32227;92139.12;;;;
2020/12/28 00:46:48;;;;;;;10.15;5.950001;;;;;;;-0.86;72.32227;92139.12;;;;
2020/12/28 00:47:49;;;;;;;10.15;5.950001;;;;;;;-0.86;72.32227;92139.12;;;;
2020/12/28 00:48:49;;;;;;;10.15;5.950001;;;;;;;-0.86;72.32227;92139.12;;;;
2020/12/28 00:49:49;;;;;;;10.15;5.950001;;;;;;;-0.86;72.32227;92139.12;;;;
2020/12/28 00:50:50;;;;;;;10.15;5.950001;;;;;;;-0.86;72.32227;92139.12;;;;
2020/12/28 00:51:50;;;;;;;10.15;5.950001;;;;;;;-0.86;72.32227;92139.12;;;;
2020/12/28 00:52:51;;;;;;;8.35;5.65;;;;;;;-0.73;72.3125;92137.97;;;;
2020/12/28 00:53:51;;;;;;;8.35;5.65;;;;;;;-0.73;72.3125;92137.97;;;;
2020/12/28 00:54:52;;;;;;;8.35;5.65;;;;;;;-0.73;72.3125;92137.97;;;;
2020/12/28 00:55:52;;;;;;;8.35;5.65;;;;;;;-0.73;72.3125;92137.97;;;;
2020/12/28 00:56:53;;;;;;;8.35;5.65;;;;;;;-0.73;72.3125;92137.97;;;;
2020/12/28 00:57:53;;;;;;;8.35;5.65;;;;;;;-0.73;72.3125;92137.97;;;;
2020/12/28 00:58:54;;;;;;;8.35;5.65;;;;;;;-0.73;72.3125;92137.97;;;;
2020/12/28 00:59:54;;;;;;;8.35;5.65;;;;;;;-0.73;72.3125;92137.97;;;;
2020/12/28 01:00:55;;;;;;;8.35;5.65;;;;;;;-0.73;72.3125;92137.97;;;;
2020/12/28 01:01:56;;;;;;;8.35;5.65;;;;;;;-0.73;72.3125;92137.97;;;;
2020/12/28 01:02:58;;;;;;;8.35;5.65;;;;;;;-0.73;72.3125;92137.97;;;;
2020/12/28 01:03:59;;;;;;;8.35;5.800001;;;;;;;-0.69;72.22656;92119.62;;;;
2020/12/28 01:04:59;;;;;;;8.35;5.800001;;;;;;;-0.69;72.22656;92119.62;;;;
2020/12/28 01:05:59;;;;;;;8.35;5.800001;;;;;;;-0.69;72.22656;92119.62;;;;
2020/12/28 01:07:02;;;;;;;8.35;5.800001;;;;;;;-0.69;72.22656;92119.62;;;;
2020/12/28 01:08:03;;;;;;;8.35;5.800001;;;;;;;-0.69;72.22656;92119.62;;;;
2020/12/28 01:09:04;;;;;;;8.35;5.800001;;;;;;;-0.69;72.22656;92119.62;;;;
2020/12/28 01:10:04;;;;;;;8.35;5.800001;;;;;;;-0.69;72.22656;92119.62;;;;
2020/12/28 01:11:05;;;;;;;8.35;5.800001;;;;;;;-0.69;72.22656;92119.62;;;;
2020/12/28 01:12:05;;;;;;;8.35;5.800001;;;;;;;-0.69;72.22656;92119.62;;;;
2020/12/28 01:13:06;;;;;;;8.35;5.800001;;;;;;;-0.69;72.22656;92119.62;;;;
2020/12/28 01:14:07;;;;;;;8.35;5.800001;;;;;;;-0.69;72.22656;92119.62;;;;
2020/12/28 01:15:07;;;;;;;8.75;5.400001;;;;;;;-0.57;72.31836;92140.17;;;;
2020/12/28 01:16:08;;;;;;;8.75;5.400001;;;;;;;-0.57;72.31836;92140.17;;;;
2020/12/28 01:17:10;;;;;;;8.75;5.400001;;;;;;;-0.57;72.31836;92140.17;;;;
2020/12/28 01:18:10;;;;;;;8.75;5.400001;;;;;;;-0.57;72.31836;92140.17;;;;
2020/12/28 01:19:11;;;;;;;8.75;5.400001;;;;;;;-0.57;72.31836;92140.17;;;;
2020/12/28 01:20:11;;;;;;;8.75;5.400001;;;;;;;-0.57;72.31836;92140.17;;;;
2020/12/28 01:21:12;;;;;;;8.75;5.400001;;;;;;;-0.57;72.31836;92140.17;;;;
2020/12/28 01:22:18;;;;;;;8.75;5.400001;;;;;;;-0.57;72.31836;92140.17;;;;
2020/12/28 01:23:19;;;;;;;8.75;5.400001;;;;;;;-0.57;72.31836;92140.17;;;;
2020/12/28 01:24:21;;;;;;;8.75;5.400001;;;;;;;-0.57;72.31836;92140.17;;;;
2020/12/28 01:25:21;;;;;;;7.3;4.7;;;;;;;-0.55;72.42578;92137.16;;;;
2020/12/28 01:26:22;;;;;;;7.3;4.7;;;;;;;-0.55;72.42578;92137.16;;;;
2020/12/28 01:27:23;;;;;;;7.3;4.7;;;;;;;-0.55;72.42578;92137.16;;;;
2020/12/28 01:28:24;;;;;;;7.3;4.7;;;;;;;-0.55;72.42578;92137.16;;;;
2020/12/28 01:29:24;;;;;;;7.3;4.7;;;;;;;-0.55;72.42578;92137.16;;;;
2020/12/28 01:30:25;;;;;;;7.3;4.7;;;;;;;-0.55;72.42578;92137.16;;;;
2020/12/28 01:31:26;;;;;;;7.3;4.7;;;;;;;-0.55;72.42578;92137.16;;;;
2020/12/28 01:32:26;;;;;;;7.3;4.7;;;;;;;-0.55;72.42578;92137.16;;;;
2020/12/28 01:33:26;;;;;;;7.3;4.7;;;;;;;-0.55;72.42578;92137.16;;;;
2020/12/28 01:34:27;;;;;;;7.3;4.7;;;;;;;-0.55;72.42578;92137.16;;;;
2020/12/28 01:35:28;;;;;;;7.3;4.7;;;;;;;-0.55;72.42578;92137.16;;;;
2020/12/28 01:36:28;;;;;;;7.950001;4.85;;;;;;;-0.57;72.38086;92123.86;;;;
2020/12/28 01:37:29;;;;;;;7.950001;4.85;;;;;;;-0.57;72.38086;92123.86;;;;
2020/12/28 01:38:29;;;;;;;7.950001;4.85;;;;;;;-0.57;72.38086;92123.86;;;;
2020/12/28 01:39:30;;;;;;;7.950001;4.85;;;;;;;-0.57;72.38086;92123.86;;;;
2020/12/28 01:40:30;;;;;;;7.950001;4.85;;;;;;;-0.57;72.38086;92123.86;;;;
2020/12/28 01:41:31;;;;;;;7.950001;4.85;;;;;;;-0.57;72.38086;92123.86;;;;
2020/12/28 01:42:32;;;;;;;7.950001;4.85;;;;;;;-0.57;72.38086;92123.86;;;;
2020/12/28 01:43:32;;;;;;;7.950001;4.85;;;;;;;-0.57;72.38086;92123.86;;;;
2020/12/28 01:44:33;;;;;;;7.950001;4.85;;;;;;;-0.57;72.38086;92123.86;;;;
2020/12/28 01:45:33;;;;;;;7.950001;4.85;;;;;;;-0.57;72.38086;92123.86;;;;
2020/12/28 01:46:34;;;;;;;7.250001;4.6;;;;;;;-0.55;72.42773;92133.59;;;;
2020/12/28 01:47:34;;;;;;;7.250001;4.6;;;;;;;-0.55;72.42773;92133.59;;;;
2020/12/28 01:48:35;;;;;;;7.250001;4.6;;;;;;;-0.55;72.42773;92133.59;;;;
2020/12/28 01:49:36;;;;;;;7.250001;4.6;;;;;;;-0.55;72.42773;92133.59;;;;
2020/12/28 01:50:37;;;;;;;7.250001;4.6;;;;;;;-0.55;72.42773;92133.59;;;;
2020/12/28 01:51:38;;;;;;;7.250001;4.6;;;;;;;-0.55;72.42773;92133.59;;;;
2020/12/28 01:52:40;;;;;;;7.250001;4.6;;;;;;;-0.55;72.42773;92133.59;;;;
2020/12/28 01:53:41;;;;;;;7.250001;4.6;;;;;;;-0.55;72.42773;92133.59;;;;
2020/12/28 01:54:41;;;;;;;7.250001;4.6;;;;;;;-0.55;72.42773;92133.59;;;;
2020/12/28 01:55:42;;;;;;;7.250001;4.6;;;;;;;-0.55;72.42773;92133.59;;;;
2020/12/28 01:56:46;;;;;;;7.250001;4.6;;;;;;;-0.55;72.42773;92133.59;;;;
2020/12/28 01:57:47;;;;;;;9.15;5.1;;;;;;;-0.58;72.26465;92110.77;;;;
2020/12/28 01:58:48;;;;;;;9.15;5.1;;;;;;;-0.58;72.26465;92110.77;;;;
2020/12/28 01:59:48;;;;;;;9.15;5.1;;;;;;;-0.58;72.26465;92110.77;;;;
2020/12/28 02:00:49;;;;;;;9.15;5.1;;;;;;;-0.58;72.26465;92110.77;;;;
2020/12/28 02:01:50;;;;;;;9.15;5.1;;;;;;;-0.58;72.26465;92110.77;;;;
2020/12/28 02:02:52;;;;;;;9.15;5.1;;;;;;;-0.58;72.26465;92110.77;;;;
2020/12/28 02:03:52;;;;;;;9.15;5.1;;;;;;;-0.58;72.26465;92110.77;;;;
2020/12/28 02:04:54;;;;;;;9.15;5.1;;;;;;;-0.58;72.26465;92110.77;;;;
2020/12/28 02:05:55;;;;;;;9.15;5.1;;;;;;;-0.58;72.26465;92110.77;;;;
2020/12/28 02:06:56;;;;;;;9.15;5.1;;;;;;;-0.58;72.26465;92110.77;;;;
2020/12/28 02:07:56;;;;;;;6.849999;4.450001;;;;;;;-0.72;72.33496;92116.16;;;;
2020/12/28 02:08:58;;;;;;;6.849999;4.450001;;;;;;;-0.72;72.33496;92116.16;;;;
2020/12/28 02:09:59;;;;;;;6.849999;4.450001;;;;;;;-0.72;72.33496;92116.16;;;;
2020/12/28 02:11:06;;;;;;;6.849999;4.450001;;;;;;;-0.72;72.33496;92116.16;;;;
2020/12/28 02:12:07;;;;;;;6.849999;4.450001;;;;;;;-0.72;72.33496;92116.16;;;;
2020/12/28 02:13:07;;;;;;;6.849999;4.450001;;;;;;;-0.72;72.33496;92116.16;;;;
2020/12/28 02:14:08;;;;;;;6.849999;4.450001;;;;;;;-0.72;72.33496;92116.16;;;;
2020/12/28 02:15:08;;;;;;;6.849999;4.450001;;;;;;;-0.72;72.33496;92116.16;;;;
2020/12/28 02:16:09;;;;;;;6.849999;4.450001;;;;;;;-0.72;72.33496;92116.16;;;;
2020/12/28 02:17:09;;;;;;;6.849999;4.450001;;;;;;;-0.72;72.33496;92116.16;;;;
2020/12/28 02:18:10;;;;;;;7.400001;4.55;;;;;;;-0.81;72.58984;92107.95;;;;
2020/12/28 02:19:10;;;;;;;7.400001;4.55;;;;;;;-0.81;72.58984;92107.95;;;;
2020/12/28 02:20:11;;;;;;;7.400001;4.55;;;;;;;-0.81;72.58984;92107.95;;;;
2020/12/28 02:21:12;;;;;;;7.400001;4.55;;;;;;;-0.81;72.58984;92107.95;;;;
2020/12/28 02:22:12;;;;;;;7.400001;4.55;;;;;;;-0.81;72.58984;92107.95;;;;
2020/12/28 02:23:13;;;;;;;7.400001;4.55;;;;;;;-0.81;72.58984;92107.95;;;;
2020/12/28 02:24:16;;;;;;;7.400001;4.55;;;;;;;-0.81;72.58984;92107.95;;;;
2020/12/28 02:25:16;;;;;;;7.400001;4.55;;;;;;;-0.81;72.58984;92107.95;;;;
2020/12/28 02:26:17;;;;;;;7.400001;4.55;;;;;;;-0.81;72.58984;92107.95;;;;
2020/12/28 02:27:18;;;;;;;7.400001;4.55;;;;;;;-0.81;72.58984;92107.95;;;;
2020/12/28 02:28:18;;;;;;;7.400001;4.55;;;;;;;-0.81;72.58984;92107.95;;;;
2020/12/28 02:29:19;;;;;;;5.799999;3.65;;;;;;;-0.86;72.57324;92082.59;;;;
2020/12/28 02:30:19;;;;;;;5.799999;3.65;;;;;;;-0.86;72.57324;92082.59;;;;
2020/12/28 02:31:20;;;;;;;5.799999;3.65;;;;;;;-0.86;72.57324;92082.59;;;;
2020/12/28 02:32:20;;;;;;;5.799999;3.65;;;;;;;-0.86;72.57324;92082.59;;;;
2020/12/28 02:33:21;;;;;;;5.799999;3.65;;;;;;;-0.86;72.57324;92082.59;;;;
2020/12/28 02:34:21;;;;;;;5.799999;3.65;;;;;;;-0.86;72.57324;92082.59;;;;
2020/12/28 02:35:22;;;;;;;5.799999;3.65;;;;;;;-0.86;72.57324;92082.59;;;;
2020/12/28 02:36:22;;;;;;;5.799999;3.65;;;;;;;-0.86;72.57324;92082.59;;;;
2020/12/28 02:37:23;;;;;;;5.799999;3.65;;;;;;;-0.86;72.57324;92082.59;;;;
2020/12/28 02:38:24;;;;;;;5.799999;3.65;;;;;;;-0.86;72.57324;92082.59;;;;
2020/12/28 02:39:24;;;;;;;5.799999;3.65;;;;;;;-0.86;72.57324;92082.59;;;;
2020/12/28 02:40:25;;;;;;;5.25;3.6;;;;;;;-0.94;72.67285;92066.75;;;;
2020/12/28 02:41:25;;;;;;;5.25;3.6;;;;;;;-0.94;72.67285;92066.75;;;;
2020/12/28 02:42:26;;;;;;;5.25;3.6;;;;;;;-0.94;72.67285;92066.75;;;;
2020/12/28 02:43:26;;;;;;;5.25;3.6;;;;;;;-0.94;72.67285;92066.75;;;;
2020/12/28 02:44:27;;;;;;;5.25;3.6;;;;;;;-0.94;72.67285;92066.75;;;;
2020/12/28 02:45:27;;;;;;;5.25;3.6;;;;;;;-0.94;72.67285;92066.75;;;;
2020/12/28 02:46:27;;;;;;;5.25;3.6;;;;;;;-0.94;72.67285;92066.75;;;;
2020/12/28 02:47:28;;;;;;;5.25;3.6;;;;;;;-0.94;72.67285;92066.75;;;;
2020/12/28 02:48:28;;;;;;;5.25;3.6;;;;;;;-0.94;72.67285;92066.75;;;;
2020/12/28 02:49:29;;;;;;;5.25;3.6;;;;;;;-0.94;72.67285;92066.75;;;;
2020/12/28 02:50:29;;;;;;;4.900001;3.5;;;;;;;-0.96;72.80469;92043.69;;;;
2020/12/28 02:51:30;;;;;;;4.900001;3.5;;;;;;;-0.96;72.80469;92043.69;;;;
2020/12/28 02:52:30;;;;;;;4.900001;3.5;;;;;;;-0.96;72.80469;92043.69;;;;
2020/12/28 02:53:30;;;;;;;4.900001;3.5;;;;;;;-0.96;72.80469;92043.69;;;;
2020/12/28 02:54:31;;;;;;;4.900001;3.5;;;;;;;-0.96;72.80469;92043.69;;;;
2020/12/28 02:55:31;;;;;;;4.900001;3.5;;;;;;;-0.96;72.80469;92043.69;;;;
2020/12/28 02:56:32;;;;;;;4.900001;3.5;;;;;;;-0.96;72.80469;92043.69;;;;
2020/12/28 02:57:32;;;;;;;4.900001;3.5;;;;;;;-0.96;72.80469;92043.69;;;;
2020/12/28 02:58:33;;;;;;;4.900001;3.5;;;;;;;-0.96;72.80469;92043.69;;;;
2020/12/28 02:59:33;;;;;;;4.900001;3.5;;;;;;;-0.96;72.80469;92043.69;;;;
2020/12/28 03:00:34;;;;;;;4.900001;3.5;;;;;;;-0.96;72.80469;92043.69;;;;
2020/12/28 03:01:37;;;;;;;4.55;3.15;;;;;;;-0.92;72.95703;92032.48;;;;
2020/12/28 03:02:37;;;;;;;4.55;3.15;;;;;;;-0.92;72.95703;92032.48;;;;
2020/12/28 03:03:38;;;;;;;4.55;3.15;;;;;;;-0.92;72.95703;92032.48;;;;
2020/12/28 03:04:38;;;;;;;4.55;3.15;;;;;;;-0.92;72.95703;92032.48;;;;
2020/12/28 03:05:39;;;;;;;4.55;3.15;;;;;;;-0.92;72.95703;92032.48;;;;
2020/12/28 03:06:39;;;;;;;4.55;3.15;;;;;;;-0.92;72.95703;92032.48;;;;
2020/12/28 03:07:40;;;;;;;4.55;3.15;;;;;;;-0.92;72.95703;92032.48;;;;
2020/12/28 03:08:40;;;;;;;4.55;3.15;;;;;;;-0.92;72.95703;92032.48;;;;
2020/12/28 03:09:40;;;;;;;4.55;3.15;;;;;;;-0.92;72.95703;92032.48;;;;
2020/12/28 03:10:41;;;;;;;4.55;3.15;;;;;;;-0.92;72.95703;92032.48;;;;
2020/12/28 03:11:41;;;;;;;5.85;3.400001;;;;;;;-0.85;72.94922;92014.97;;;;
2020/12/28 03:12:42;;;;;;;5.85;3.400001;;;;;;;-0.85;72.94922;92014.97;;;;
2020/12/28 03:13:42;;;;;;;5.85;3.400001;;;;;;;-0.85;72.94922;92014.97;;;;
2020/12/28 03:14:43;;;;;;;5.85;3.400001;;;;;;;-0.85;72.94922;92014.97;;;;
2020/12/28 03:15:43;;;;;;;5.85;3.400001;;;;;;;-0.85;72.94922;92014.97;;;;
2020/12/28 03:16:44;;;;;;;5.85;3.400001;;;;;;;-0.85;72.94922;92014.97;;;;
2020/12/28 03:17:44;;;;;;;5.85;3.400001;;;;;;;-0.85;72.94922;92014.97;;;;
2020/12/28 03:18:45;;;;;;;5.85;3.400001;;;;;;;-0.85;72.94922;92014.97;;;;
2020/12/28 03:19:45;;;;;;;5.85;3.400001;;;;;;;-0.85;72.94922;92014.97;;;;
2020/12/28 03:20:46;;;;;;;5.85;3.400001;;;;;;;-0.85;72.94922;92014.97;;;;
2020/12/28 03:21:46;;;;;;;5.85;3.400001;;;;;;;-0.85;72.94922;92014.97;;;;
2020/12/28 03:22:46;;;;;;;5.600001;3.25;;;;;;;-0.75;72.95703;92008.84;;;;
2020/12/28 03:23:47;;;;;;;5.600001;3.25;;;;;;;-0.75;72.95703;92008.84;;;;
2020/12/28 03:24:47;;;;;;;5.600001;3.25;;;;;;;-0.75;72.95703;92008.84;;;;
2020/12/28 03:25:48;;;;;;;5.600001;3.25;;;;;;;-0.75;72.95703;92008.84;;;;
2020/12/28 03:26:48;;;;;;;5.600001;3.25;;;;;;;-0.75;72.95703;92008.84;;;;
2020/12/28 03:27:49;;;;;;;5.600001;3.25;;;;;;;-0.75;72.95703;92008.84;;;;
2020/12/28 03:28:49;;;;;;;5.600001;3.25;;;;;;;-0.75;72.95703;92008.84;;;;
2020/12/28 03:29:50;;;;;;;5.600001;3.25;;;;;;;-0.75;72.95703;92008.84;;;;
2020/12/28 03:30:51;;;;;;;5.600001;3.25;;;;;;;-0.75;72.95703;92008.84;;;;
2020/12/28 03:31:51;;;;;;;5.600001;3.25;;;;;;;-0.75;72.95703;92008.84;;;;
2020/12/28 03:32:52;;;;;;;5.600001;3.25;;;;;;;-0.75;72.95703;92008.84;;;;
2020/12/28 03:33:52;;;;;;;7.849999;3.55;;;;;;;-0.67;73.00098;91983.37;;;;
2020/12/28 03:34:53;;;;;;;7.849999;3.55;;;;;;;-0.67;73.00098;91983.37;;;;
2020/12/28 03:35:53;;;;;;;7.849999;3.55;;;;;;;-0.67;73.00098;91983.37;;;;
2020/12/28 03:36:54;;;;;;;7.849999;3.55;;;;;;;-0.67;73.00098;91983.37;;;;
2020/12/28 03:37:54;;;;;;;7.849999;3.55;;;;;;;-0.67;73.00098;91983.37;;;;
2020/12/28 03:38:55;;;;;;;7.849999;3.55;;;;;;;-0.67;73.00098;91983.37;;;;
2020/12/28 03:39:55;;;;;;;7.849999;3.55;;;;;;;-0.67;73.00098;91983.37;;;;
2020/12/28 03:40:56;;;;;;;7.849999;3.55;;;;;;;-0.67;73.00098;91983.37;;;;
2020/12/28 03:41:56;;;;;;;7.849999;3.55;;;;;;;-0.67;73.00098;91983.37;;;;
2020/12/28 03:42:57;;;;;;;7.849999;3.55;;;;;;;-0.67;73.00098;91983.37;;;;
2020/12/28 03:43:57;;;;;;;6.7;3.25;;;;;;;-0.52;72.92285;91975.45;;;;
2020/12/28 03:44:57;;;;;;;6.7;3.25;;;;;;;-0.52;72.92285;91975.45;;;;
2020/12/28 03:45:58;;;;;;;6.7;3.25;;;;;;;-0.52;72.92285;91975.45;;;;
2020/12/28 03:46:58;;;;;;;6.7;3.25;;;;;;;-0.52;72.92285;91975.45;;;;
2020/12/28 03:47:59;;;;;;;6.7;3.25;;;;;;;-0.52;72.92285;91975.45;;;;
2020/12/28 03:49:00;;;;;;;6.7;3.25;;;;;;;-0.52;72.92285;91975.45;;;;
2020/12/28 03:50:00;;;;;;;6.7;3.25;;;;;;;-0.52;72.92285;91975.45;;;;
2020/12/28 03:51:01;;;;;;;6.7;3.25;;;;;;;-0.52;72.92285;91975.45;;;;
2020/12/28 03:52:01;;;;;;;6.7;3.25;;;;;;;-0.52;72.92285;91975.45;;;;
2020/12/28 03:53:02;;;;;;;6.7;3.25;;;;;;;-0.52;72.92285;91975.45;;;;
2020/12/28 03:54:02;;;;;;;6.7;3.25;;;;;;;-0.52;72.92285;91975.45;;;;
2020/12/28 03:55:03;;;;;;;5.200001;3.05;;;;;;;-0.41;72.80469;91952.9;;;;
2020/12/28 03:56:03;;;;;;;5.200001;3.05;;;;;;;-0.41;72.80469;91952.9;;;;
2020/12/28 03:57:04;;;;;;;5.200001;3.05;;;;;;;-0.41;72.80469;91952.9;;;;
2020/12/28 03:58:04;;;;;;;5.200001;3.05;;;;;;;-0.41;72.80469;91952.9;;;;
2020/12/28 03:59:05;;;;;;;5.200001;3.05;;;;;;;-0.41;72.80469;91952.9;;;;
2020/12/28 04:00:05;;;;;;;5.200001;3.05;;;;;;;-0.41;72.80469;91952.9;;;;
2020/12/28 04:01:06;;;;;;;5.200001;3.05;;;;;;;-0.41;72.80469;91952.9;;;;
2020/12/28 04:02:06;;;;;;;5.200001;3.05;;;;;;;-0.41;72.80469;91952.9;;;;
2020/12/28 04:03:07;;;;;;;5.200001;3.05;;;;;;;-0.41;72.80469;91952.9;;;;
2020/12/28 04:04:07;;;;;;;5.200001;3.05;;;;;;;-0.41;72.80469;91952.9;;;;
2020/12/28 04:05:08;;;;;;;4.299999;3.35;;;;;;;-0.33;72.79004;91943.19;;;;
2020/12/28 04:06:08;;;;;;;4.299999;3.35;;;;;;;-0.33;72.79004;91943.19;;;;
2020/12/28 04:07:09;;;;;;;4.299999;3.35;;;;;;;-0.33;72.79004;91943.19;;;;
2020/12/28 04:08:09;;;;;;;4.299999;3.35;;;;;;;-0.33;72.79004;91943.19;;;;
2020/12/28 04:09:10;;;;;;;4.299999;3.35;;;;;;;-0.33;72.79004;91943.19;;;;
2020/12/28 04:10:10;;;;;;;4.299999;3.35;;;;;;;-0.33;72.79004;91943.19;;;;
2020/12/28 04:11:11;;;;;;;4.299999;3.35;;;;;;;-0.33;72.79004;91943.19;;;;
2020/12/28 04:12:11;;;;;;;4.299999;3.35;;;;;;;-0.33;72.79004;91943.19;;;;
2020/12/28 04:13:12;;;;;;;4.299999;3.35;;;;;;;-0.33;72.79004;91943.19;;;;
2020/12/28 04:14:12;;;;;;;4.299999;3.35;;;;;;;-0.33;72.79004;91943.19;;;;
2020/12/28 04:15:13;;;;;;;4.299999;3.35;;;;;;;-0.33;72.79004;91943.19;;;;
2020/12/28 04:16:13;;;;;;;5.250001;3.4;;;;;;;-0.27;72.84961;91969.2;;;;
2020/12/28 04:17:14;;;;;;;5.250001;3.4;;;;;;;-0.27;72.84961;91969.2;;;;
2020/12/28 04:18:14;;;;;;;5.250001;3.4;;;;;;;-0.27;72.84961;91969.2;;;;
2020/12/28 04:19:15;;;;;;;5.250001;3.4;;;;;;;-0.27;72.84961;91969.2;;;;
2020/12/28 04:20:15;;;;;;;5.250001;3.4;;;;;;;-0.27;72.84961;91969.2;;;;
2020/12/28 04:21:17;;;;;;;5.250001;3.4;;;;;;;-0.27;72.84961;91969.2;;;;
2020/12/28 04:22:17;;;;;;;5.250001;3.4;;;;;;;-0.27;72.84961;91969.2;;;;
2020/12/28 04:23:18;;;;;;;5.250001;3.4;;;;;;;-0.27;72.84961;91969.2;;;;
2020/12/28 04:24:18;;;;;;;5.250001;3.4;;;;;;;-0.27;72.84961;91969.2;;;;
2020/12/28 04:25:19;;;;;;;5.250001;3.4;;;;;;;-0.27;72.84961;91969.2;;;;
2020/12/28 04:26:19;;;;;;;4.95;3.349999;;;;;;;-0.3;72.98047;91953.78;;;;
2020/12/28 04:27:20;;;;;;;4.95;3.349999;;;;;;;-0.3;72.98047;91953.78;;;;
2020/12/28 04:28:20;;;;;;;4.95;3.349999;;;;;;;-0.3;72.98047;91953.78;;;;
2020/12/28 04:29:21;;;;;;;4.95;3.349999;;;;;;;-0.3;72.98047;91953.78;;;;
2020/12/28 04:30:21;;;;;;;4.95;3.349999;;;;;;;-0.3;72.98047;91953.78;;;;
2020/12/28 04:31:22;;;;;;;4.95;3.349999;;;;;;;-0.3;72.98047;91953.78;;;;
2020/12/28 04:32:22;;;;;;;4.95;3.349999;;;;;;;-0.3;72.98047;91953.78;;;;
2020/12/28 04:33:23;;;;;;;4.95;3.349999;;;;;;;-0.3;72.98047;91953.78;;;;
2020/12/28 04:34:23;;;;;;;4.95;3.349999;;;;;;;-0.3;72.98047;91953.78;;;;
2020/12/28 04:35:24;;;;;;;4.95;3.349999;;;;;;;-0.3;72.98047;91953.78;;;;
2020/12/28 04:36:24;;;;;;;4.95;3.349999;;;;;;;-0.3;72.98047;91953.78;;;;
2020/12/28 04:37:25;;;;;;;6.85;3.45;;;;;;;-0.24;73.04297;91948.41;;;;
2020/12/28 04:38:25;;;;;;;6.85;3.45;;;;;;;-0.24;73.04297;91948.41;;;;
2020/12/28 04:39:26;;;;;;;6.85;3.45;;;;;;;-0.24;73.04297;91948.41;;;;
2020/12/28 04:40:26;;;;;;;6.85;3.45;;;;;;;-0.24;73.04297;91948.41;;;;
2020/12/28 04:41:27;;;;;;;6.85;3.45;;;;;;;-0.24;73.04297;91948.41;;;;
2020/12/28 04:42:28;;;;;;;6.85;3.45;;;;;;;-0.24;73.04297;91948.41;;;;
2020/12/28 04:43:29;;;;;;;6.85;3.45;;;;;;;-0.24;73.04297;91948.41;;;;
2020/12/28 04:44:29;;;;;;;6.85;3.45;;;;;;;-0.24;73.04297;91948.41;;;;
2020/12/28 04:45:30;;;;;;;6.85;3.45;;;;;;;-0.24;73.04297;91948.41;;;;
2020/12/28 04:46:31;;;;;;;6.85;3.45;;;;;;;-0.24;73.04297;91948.41;;;;
2020/12/28 04:47:31;;;;;;;6.85;3.45;;;;;;;-0.24;73.04297;91948.41;;;;
2020/12/28 04:48:32;;;;;;;6.4;3.55;;;;;;;-0.21;73.02832;91965.01;;;;
2020/12/28 04:49:33;;;;;;;6.4;3.55;;;;;;;-0.21;73.02832;91965.01;;;;
2020/12/28 04:50:34;;;;;;;6.4;3.55;;;;;;;-0.21;73.02832;91965.01;;;;
2020/12/28 04:51:35;;;;;;;6.4;3.55;;;;;;;-0.21;73.02832;91965.01;;;;
2020/12/28 04:52:36;;;;;;;6.4;3.55;;;;;;;-0.21;73.02832;91965.01;;;;
2020/12/28 04:53:36;;;;;;;6.4;3.55;;;;;;;-0.21;73.02832;91965.01;;;;
2020/12/28 04:54:41;;;;;;;6.4;3.55;;;;;;;-0.21;73.02832;91965.01;;;;
2020/12/28 04:55:42;;;;;;;6.4;3.55;;;;;;;-0.21;73.02832;91965.01;;;;
2020/12/28 04:56:43;;;;;;;6.4;3.55;;;;;;;-0.21;73.02832;91965.01;;;;
2020/12/28 04:57:43;;;;;;;6.4;3.55;;;;;;;-0.21;73.02832;91965.01;;;;
2020/12/28 04:58:44;;;;;;;5.55;3.5;;;;;;;-0.14;73.08105;91940.01;;;;
2020/12/28 04:59:44;;;;;;;5.55;3.5;;;;;;;-0.14;73.08105;91940.01;;;;
2020/12/28 05:00:45;;;;;;;5.55;3.5;;;;;;;-0.14;73.08105;91940.01;;;;
2020/12/28 05:01:46;;;;;;;5.55;3.5;;;;;;;-0.14;73.08105;91940.01;;;;
2020/12/28 05:02:54;;;;;;;5.55;3.5;;;;;;;-0.14;73.08105;91940.01;;;;
2020/12/28 05:03:54;;;;;;;5.55;3.5;;;;;;;-0.14;73.08105;91940.01;;;;
2020/12/28 05:04:55;;;;;;;5.55;3.5;;;;;;;-0.14;73.08105;91940.01;;;;
2020/12/28 05:06:04;;;;;;;5.55;3.5;;;;;;;-0.14;73.08105;91940.01;;;;
2020/12/28 05:07:05;;;;;;;5.55;3.5;;;;;;;-0.14;73.08105;91940.01;;;;
2020/12/28 05:08:06;;;;;;;5.55;3.5;;;;;;;-0.14;73.08105;91940.01;;;;
2020/12/28 05:09:07;;;;;;;6.85;3.55;;;;;;;-0.06;73.125;91922.85;;;;
2020/12/28 05:10:08;;;;;;;6.85;3.55;;;;;;;-0.06;73.125;91922.85;;;;
2020/12/28 05:11:20;;;;;;;6.85;3.55;;;;;;;-0.06;73.125;91922.85;;;;
2020/12/28 05:12:20;;;;;;;6.85;3.55;;;;;;;-0.06;73.125;91922.85;;;;
2020/12/28 05:13:21;;;;;;;6.85;3.55;;;;;;;-0.06;73.125;91922.85;;;;
2020/12/28 05:14:22;;;;;;;6.85;3.55;;;;;;;-0.06;73.125;91922.85;;;;
2020/12/28 05:15:23;;;;;;;6.85;3.55;;;;;;;-0.06;73.125;91922.85;;;;
2020/12/28 05:16:23;;;;;;;6.85;3.55;;;;;;;-0.06;73.125;91922.85;;;;
2020/12/28 05:17:25;;;;;;;6.85;3.55;;;;;;;-0.06;73.125;91922.85;;;;
2020/12/28 05:18:25;;;;;;;6.85;3.55;;;;;;;-0.06;73.125;91922.85;;;;
2020/12/28 05:19:26;;;;;;;6.85;3.55;;;;;;;-0.06;73.125;91922.85;;;;
2020/12/28 05:20:27;;;;;;;5.199999;3.4;;;;;;;0.04;73.20605;91917.08;;;;
2020/12/28 05:21:28;;;;;;;5.199999;3.4;;;;;;;0.04;73.20605;91917.08;;;;
2020/12/28 05:22:28;;;;;;;5.199999;3.4;;;;;;;0.04;73.20605;91917.08;;;;
2020/12/28 05:23:30;;;;;;;5.199999;3.4;;;;;;;0.04;73.20605;91917.08;;;;
2020/12/28 05:24:32;;;;;;;5.199999;3.4;;;;;;;0.04;73.20605;91917.08;;;;
2020/12/28 05:25:32;;;;;;;5.199999;3.4;;;;;;;0.04;73.20605;91917.08;;;;
2020/12/28 05:26:33;;;;;;;5.199999;3.4;;;;;;;0.04;73.20605;91917.08;;;;
2020/12/28 05:27:39;;;;;;;5.199999;3.4;;;;;;;0.04;73.20605;91917.08;;;;
2020/12/28 05:28:43;;;;;;;5.199999;3.4;;;;;;;0.04;73.20605;91917.08;;;;
2020/12/28 05:29:46;;;;;;;5.199999;3.4;;;;;;;0.04;73.20605;91917.08;;;;
2020/12/28 05:30:48;;;;;;;5.1;2.8;;;;;;;0.12;73.1875;91906.53;;;;
2020/12/28 05:31:49;;;;;;;5.1;2.8;;;;;;;0.12;73.1875;91906.53;;;;
2020/12/28 05:32:52;;;;;;;5.1;2.8;;;;;;;0.12;73.1875;91906.53;;;;
2020/12/28 05:33:53;;;;;;;5.1;2.8;;;;;;;0.12;73.1875;91906.53;;;;